Time;durP1;ratioP1;P1;durP2;ratioP2;P2;SDS_P1;SDS_P2;PMS_P1;PMS_P2;Temp;Humidity;BMP_temperature;BMP_pressure;BME280_temperature;BME280_humidity;BME280_pressure;Samples;Min_cycle;Max_cycle;Signal;HPM_P1;HPM_P2
2022/05/11 00:00:44;;;;;;;3.72;3.42;;;16.00;80.80;;;;;;5062209;28;20022;-83
2022/05/11 00:03:10;;;;;;;4.65;3.78;;;16.00;81.00;;;;;;5045328;28;20032;-83
2022/05/11 00:05:35;;;;;;;4.45;3.90;;;16.00;81.20;;;;;;5060841;28;20029;-82
2022/05/11 00:08:03;;;;;;;3.67;3.35;;;15.90;81.40;;;;;;5044048;28;20083;-83
2022/05/11 00:10:29;;;;;;;4.28;3.72;;;15.90;81.70;;;;;;5068827;28;20017;-82
2022/05/11 00:12:57;;;;;;;3.95;3.55;;;15.90;82.00;;;;;;5062775;28;20025;-83
2022/05/11 00:15:23;;;;;;;3.92;3.53;;;15.80;82.30;;;;;;5061162;28;20009;-82
2022/05/11 00:17:50;;;;;;;5.10;3.85;;;15.80;82.50;;;;;;5045461;28;20438;-82
2022/05/11 00:20:16;;;;;;;3.65;3.35;;;15.80;82.70;;;;;;5045828;28;20024;-83
2022/05/11 00:22:42;;;;;;;5.57;3.60;;;15.70;83.00;;;;;;5062525;28;20033;-82
2022/05/11 00:25:09;;;;;;;3.67;3.38;;;15.70;83.30;;;;;;5044343;28;20037;-82
2022/05/11 00:27:35;;;;;;;3.72;3.42;;;15.70;83.70;;;;;;5044264;28;20024;-83
2022/05/11 00:30:02;;;;;;;4.03;3.67;;;15.60;84.00;;;;;;5067012;28;20040;-83
2022/05/11 00:32:28;;;;;;;3.92;3.63;;;15.60;84.30;;;;;;5063574;28;20074;-82
2022/05/11 00:34:54;;;;;;;3.92;3.63;;;15.50;84.50;;;;;;5062133;28;20096;-83
2022/05/11 00:37:20;;;;;;;5.47;4.20;;;15.50;84.80;;;;;;5062983;28;20041;-82
2022/05/11 00:39:48;;;;;;;4.18;3.78;;;15.50;85.30;;;;;;5064599;28;20390;-83
2022/05/11 00:42:14;;;;;;;4.55;4.15;;;15.50;85.60;;;;;;5066490;28;20032;-83
2022/05/11 00:44:40;;;;;;;4.20;3.80;;;15.40;85.80;;;;;;5068717;28;20051;-83
2022/05/11 00:47:22;;;;;;;3.97;3.55;;;15.40;86.10;;;;;;5067170;28;20076;-82
2022/05/11 00:49:52;;;;;;;4.47;4.07;;;15.40;86.30;;;;;;5069718;28;20021;-83
2022/05/11 00:52:26;;;;;;;4.10;3.72;;;15.40;86.50;;;;;;5066181;28;20040;-83
2022/05/11 00:55:04;;;;;;;4.47;3.65;;;15.30;86.60;;;;;;5070110;28;20096;-83
2022/05/11 00:57:38;;;;;;;3.65;3.35;;;15.30;86.80;;;;;;5065419;28;20028;-83
2022/05/11 01:00:08;;;;;;;3.42;3.22;;;15.30;87.10;;;;;;5072745;28;20480;-84
2022/05/11 01:02:35;;;;;;;4.97;3.65;;;15.30;87.20;;;;;;5049997;28;20052;-83
2022/05/11 01:05:05;;;;;;;3.65;3.42;;;15.30;87.40;;;;;;5069377;28;20040;-84
2022/05/11 01:07:31;;;;;;;3.45;3.15;;;15.30;87.50;;;;;;5068748;28;20033;-83
2022/05/11 01:09:57;;;;;;;3.60;3.30;;;15.20;87.70;;;;;;5068508;28;20005;-83
2022/05/11 01:12:35;;;;;;;3.92;3.58;;;15.20;87.90;;;;;;5051165;28;20017;-83
2022/05/11 01:15:04;;;;;;;4.25;3.85;;;15.20;88.30;;;;;;5067047;28;20040;-83
2022/05/11 01:17:36;;;;;;;5.05;3.50;;;15.10;88.50;;;;;;5067558;28;20124;-82
2022/05/11 01:20:05;;;;;;;3.43;3.13;;;15.10;88.90;;;;;;5065893;28;20025;-83
2022/05/11 01:22:42;;;;;;;3.40;3.20;;;15.10;89.00;;;;;;5066853;28;20029;-82
2022/05/11 01:25:10;;;;;;;3.85;3.50;;;15.00;89.30;;;;;;5050276;28;20104;-83
2022/05/11 01:27:41;;;;;;;4.00;3.70;;;15.00;89.60;;;;;;5065542;28;20028;-83
2022/05/11 01:30:09;;;;;;;3.40;3.10;;;15.00;89.80;;;;;;5049160;28;20089;-81
2022/05/11 01:32:36;;;;;;;4.03;3.63;;;14.90;90.00;;;;;;5066610;28;20044;-83
2022/05/11 01:35:23;;;;;;;4.20;3.63;;;14.90;90.10;;;;;;5049225;28;20105;-84
2022/05/11 01:38:39;;;;;;;3.70;3.40;;;14.90;90.20;;;;;;5072584;28;20070;-83
2022/05/11 01:41:06;;;;;;;3.65;3.35;;;14.90;90.30;;;;;;5067230;28;20076;-83
2022/05/11 01:43:35;;;;;;;3.30;3.10;;;14.80;90.40;;;;;;5051051;28;20036;-82
2022/05/11 01:46:01;;;;;;;4.75;3.67;;;14.80;90.50;;;;;;5064428;28;20026;-83
2022/05/11 01:48:28;;;;;;;4.32;3.92;;;14.80;90.50;;;;;;5065394;28;20052;-84
2022/05/11 01:50:54;;;;;;;5.13;3.50;;;14.80;90.60;;;;;;5065032;28;20031;-83
2022/05/11 01:53:21;;;;;;;3.60;3.10;;;14.80;90.60;;;;;;5060274;28;20017;-83
2022/05/11 01:55:47;;;;;;;3.38;3.08;;;14.80;90.70;;;;;;5079429;28;20020;-83
2022/05/11 01:58:18;;;;;;;3.78;3.47;;;14.70;90.80;;;;;;5079390;28;20016;-83
2022/05/11 02:00:46;;;;;;;3.58;3.22;;;14.80;90.80;;;;;;5062010;28;20024;-82
2022/05/11 02:03:12;;;;;;;3.63;3.33;;;14.70;90.80;;;;;;5062314;28;20033;-82
2022/05/11 02:08:23;;;;;;;3.22;3.03;;;14.70;90.90;;;;;;5069232;28;20040;-84
2022/05/11 02:10:49;;;;;;;3.50;3.17;;;14.70;90.90;;;;;;5066989;28;20031;-82
2022/05/11 02:13:15;;;;;;;4.40;3.70;;;14.70;90.90;;;;;;5067809;28;20033;-84
2022/05/11 02:15:41;;;;;;;3.35;3.10;;;14.70;90.90;;;;;;5048346;28;20040;-83
2022/05/11 02:18:07;;;;;;;3.50;3.20;;;14.70;90.90;;;;;;5065752;28;20444;-83
2022/05/11 02:20:34;;;;;;;3.88;3.13;;;14.80;90.90;;;;;;5072419;28;20033;-83
2022/05/11 02:23:00;;;;;;;3.85;3.55;;;14.70;90.90;;;;;;5048392;28;20409;-83
2022/05/11 02:25:26;;;;;;;3.47;3.17;;;14.80;90.90;;;;;;5069745;28;20083;-83
2022/05/11 02:27:52;;;;;;;3.00;2.75;;;14.80;91.10;;;;;;5066723;28;20044;-84
2022/05/11 02:30:25;;;;;;;3.10;2.85;;;14.80;90.80;;;;;;5064384;28;20097;-83
2022/05/11 02:32:51;;;;;;;4.97;3.05;;;14.80;90.80;;;;;;5046910;28;20029;-83
2022/05/11 02:35:18;;;;;;;3.42;3.13;;;14.80;90.80;;;;;;5067895;28;20088;-83
2022/05/11 02:37:47;;;;;;;3.25;2.95;;;14.80;90.80;;;;;;5047998;28;20033;-83
2022/05/11 02:40:15;;;;;;;2.67;2.47;;;14.80;90.80;;;;;;5068847;28;20025;-83
2022/05/11 02:42:41;;;;;;;3.05;2.85;;;14.70;90.70;;;;;;5066088;28;20036;-82
2022/05/11 02:45:08;;;;;;;3.40;3.13;;;14.70;90.80;;;;;;5052925;28;20021;-83
2022/05/11 02:47:35;;;;;;;3.42;3.13;;;14.70;90.80;;;;;;5066174;28;20025;-83
2022/05/11 02:50:03;;;;;;;3.17;2.88;;;14.70;90.90;;;;;;5066957;28;20009;-82
2022/05/11 02:52:30;;;;;;;3.33;3.03;;;14.60;90.90;;;;;;5065836;28;20097;-83
2022/05/11 02:54:56;;;;;;;3.58;3.28;;;14.60;91.00;;;;;;5068081;28;20071;-82
2022/05/11 02:57:22;;;;;;;4.00;3.28;;;14.60;91.00;;;;;;5045627;28;20036;-83
2022/05/11 02:59:49;;;;;;;4.25;3.30;;;14.60;91.00;;;;;;5065340;28;20047;-84
2022/05/11 03:02:18;;;;;;;2.85;2.65;;;14.60;91.00;;;;;;5064623;28;20037;-83
2022/05/11 03:04:43;;;;;;;3.38;3.05;;;14.60;91.00;;;;;;5047184;28;20025;-84
2022/05/11 03:07:09;;;;;;;3.10;2.80;;;14.50;91.00;;;;;;5066085;28;20024;-83
2022/05/11 03:09:36;;;;;;;3.85;3.20;;;14.50;91.10;;;;;;5069011;28;20032;-83
2022/05/11 03:12:02;;;;;;;3.55;3.25;;;14.50;91.10;;;;;;5085006;28;20025;-83
2022/05/11 03:14:27;;;;;;;3.67;3.38;;;14.50;91.10;;;;;;5083912;28;20032;-83
2022/05/11 03:16:53;;;;;;;3.30;3.00;;;14.50;91.20;;;;;;5083295;28;20084;-84
2022/05/11 03:19:19;;;;;;;3.67;3.38;;;14.50;91.30;;;;;;5082431;28;20075;-82
2022/05/11 03:21:44;;;;;;;4.22;3.20;;;14.50;91.30;;;;;;5064453;28;20025;-83
2022/05/11 03:24:10;;;;;;;3.28;2.92;;;14.40;91.30;;;;;;5060441;28;20033;-82
2022/05/11 03:26:36;;;;;;;4.32;3.03;;;14.40;91.30;;;;;;5043640;28;20028;-82
2022/05/11 03:29:05;;;;;;;3.08;2.83;;;14.50;91.40;;;;;;5061643;28;20040;-82
2022/05/11 03:31:35;;;;;;;4.88;3.17;;;14.50;91.40;;;;;;5044119;28;20326;-84
2022/05/11 03:36:47;;;;;;;3.70;3.30;;;14.60;91.10;;;;;;5065928;28;20047;-78
2022/05/11 03:39:17;;;;;;;3.80;3.50;;;14.70;91.00;;;;;;5073834;28;20001;-83
2022/05/11 03:41:47;;;;;;;3.30;3.00;;;14.70;90.80;;;;;;5066093;28;20074;-78
2022/05/11 03:44:13;;;;;;;3.45;3.15;;;14.80;90.70;;;;;;5042665;28;20136;-78
2022/05/11 03:46:40;;;;;;;2.92;2.72;;;14.80;90.60;;;;;;5053280;28;20017;-78
2022/05/11 03:49:06;;;;;;;3.55;3.25;;;14.70;90.60;;;;;;5055432;28;20036;-79
2022/05/11 03:51:32;;;;;;;3.17;2.88;;;14.70;90.60;;;;;;5062498;28;20426;-79
2022/05/11 03:53:59;;;;;;;2.88;2.67;;;14.60;90.70;;;;;;5084886;28;20024;-78
2022/05/11 03:56:24;;;;;;;4.25;3.25;;;14.60;90.70;;;;;;5078044;28;20025;-79
2022/05/11 03:58:50;;;;;;;3.20;2.90;;;14.60;90.70;;;;;;5077370;28;20045;-79
2022/05/11 04:01:16;;;;;;;4.57;3.30;;;14.60;90.70;;;;;;5077053;28;20025;-80
2022/05/11 04:03:42;;;;;;;3.85;3.35;;;14.60;90.70;;;;;;5059255;28;20418;-78
2022/05/11 04:06:08;;;;;;;3.97;3.22;;;14.60;90.70;;;;;;5073734;28;20019;-79
2022/05/11 04:08:34;;;;;;;3.65;3.08;;;14.60;90.70;;;;;;5077402;28;20481;-79
2022/05/11 04:11:01;;;;;;;3.97;3.58;;;14.60;90.70;;;;;;5087411;28;20016;-79
2022/05/11 04:13:27;;;;;;;3.10;2.80;;;14.60;90.60;;;;;;5064541;28;20083;-79
2022/05/11 04:15:53;;;;;;;3.33;2.85;;;14.60;90.50;;;;;;5082568;28;20068;-79
2022/05/11 04:18:20;;;;;;;3.42;3.10;;;14.60;90.50;;;;;;5079510;28;20028;-78
2022/05/11 04:20:46;;;;;;;2.63;2.42;;;14.70;90.40;;;;;;5065440;28;20168;-79
2022/05/11 04:23:12;;;;;;;3.15;2.95;;;14.70;90.40;;;;;;5064173;28;20039;-79
2022/05/11 04:25:39;;;;;;;3.17;2.88;;;14.70;90.30;;;;;;5082192;28;20029;-79
2022/05/11 04:28:11;;;;;;;2.95;2.70;;;14.70;90.10;;;;;;5066268;28;20384;-79
2022/05/11 04:30:38;;;;;;;2.90;2.70;;;14.80;90.00;;;;;;5078555;28;20087;-79
2022/05/11 04:33:06;;;;;;;2.92;2.72;;;14.80;90.00;;;;;;5078614;28;20052;-79
2022/05/11 04:35:31;;;;;;;3.75;2.72;;;14.90;89.80;;;;;;5077532;28;20170;-79
2022/05/11 04:37:58;;;;;;;3.40;3.10;;;14.90;89.60;;;;;;5070675;28;20040;-79
2022/05/11 04:40:25;;;;;;;3.97;2.88;;;14.90;89.50;;;;;;5063123;28;20056;-79
2022/05/11 04:42:50;;;;;;;2.95;2.67;;;15.00;89.20;;;;;;5059970;28;20028;-79
2022/05/11 04:45:17;;;;;;;2.83;2.63;;;15.00;89.10;;;;;;5060169;28;20028;-79
2022/05/11 04:47:43;;;;;;;2.83;2.63;;;15.00;88.80;;;;;;5062608;28;20292;-79
2022/05/11 04:50:13;;;;;;;2.80;2.60;;;15.10;88.50;;;;;;5060185;28;20025;-79
2022/05/11 04:52:39;;;;;;;3.25;2.78;;;15.20;88.10;;;;;;5044896;28;20052;-78
2022/05/11 04:55:07;;;;;;;2.58;2.38;;;15.20;87.80;;;;;;5077297;28;20036;-80
2022/05/11 04:57:33;;;;;;;4.07;3.05;;;15.30;87.40;;;;;;5075554;28;20025;-79
2022/05/11 04:59:59;;;;;;;3.13;2.83;;;15.40;87.00;;;;;;5077943;28;20029;-79
2022/05/11 05:02:27;;;;;;;2.70;2.50;;;15.40;86.60;;;;;;5080457;28;20080;-80
2022/05/11 05:04:58;;;;;;;2.60;2.40;;;15.50;86.20;;;;;;5072557;28;20055;-78
2022/05/11 05:07:24;;;;;;;2.42;2.30;;;15.60;85.60;;;;;;5050414;28;20025;-79
2022/05/11 05:09:50;;;;;;;5.55;2.50;;;15.70;85.10;;;;;;5042531;28;20025;-79
2022/05/11 05:12:17;;;;;;;2.78;2.58;;;16.00;84.60;;;;;;5061883;28;20055;-79
2022/05/11 05:14:43;;;;;;;2.65;2.45;;;16.20;83.40;;;;;;5043086;28;20114;-78
2022/05/11 05:17:11;;;;;;;3.88;2.20;;;16.40;82.60;;;;;;5073877;28;20024;-79
2022/05/11 05:19:42;;;;;;;2.60;2.40;;;16.60;81.40;;;;;;5079153;28;20044;-80
2022/05/11 05:22:08;;;;;;;2.30;2.10;;;16.70;80.90;;;;;;5080497;28;20021;-80
2022/05/11 05:24:35;;;;;;;2.65;2.38;;;16.70;80.60;;;;;;5078245;28;20025;-79
2022/05/11 05:27:02;;;;;;;3.15;2.45;;;16.90;80.60;;;;;;5062949;28;20025;-80
2022/05/11 05:32:13;;;;;;;2.55;2.22;;;19.00;73.70;;;;;;5061067;28;20524;-79
2022/05/11 05:34:39;;;;;;;3.90;2.28;;;19.60;71.40;;;;;;5070733;28;20033;-80
2022/05/11 05:37:05;;;;;;;2.35;2.15;;;19.90;69.80;;;;;;5061503;28;20058;-79
2022/05/11 05:39:30;;;;;;;2.67;2.47;;;20.10;68.60;;;;;;5080495;28;20029;-80
2022/05/11 05:41:56;;;;;;;2.38;2.17;;;20.20;67.70;;;;;;5082023;28;20021;-79
2022/05/11 05:44:29;;;;;;;2.40;2.20;;;20.10;67.40;;;;;;5084346;28;20119;-80
2022/05/11 05:46:56;;;;;;;3.60;2.38;;;20.20;67.10;;;;;;5043598;28;20032;-80
2022/05/11 05:49:23;;;;;;;4.13;2.50;;;20.10;67.00;;;;;;5061762;28;20032;-79
2022/05/11 05:51:48;;;;;;;2.45;2.25;;;19.90;67.40;;;;;;5061866;28;20048;-79
2022/05/11 05:54:14;;;;;;;2.65;2.42;;;20.50;67.90;;;;;;5063937;28;20051;-79
2022/05/11 05:56:40;;;;;;;2.25;1.77;;;23.20;63.90;;;;;;5080198;28;20029;-78
2022/05/11 05:59:09;;;;;;;3.40;2.22;;;26.20;56.60;;;;;;5086696;28;20456;-79
2022/05/11 06:01:35;;;;;;;1.98;1.77;;;28.30;51.30;;;;;;5084722;28;20047;-79
2022/05/11 06:04:01;;;;;;;2.42;1.95;;;29.70;47.50;;;;;;5084949;28;20029;-79
2022/05/11 06:06:28;;;;;;;1.85;1.75;;;30.80;45.40;;;;;;5077636;28;20048;-79
2022/05/11 06:08:53;;;;;;;2.03;1.92;;;31.80;43.30;;;;;;5079206;28;20107;-79
2022/05/11 06:11:19;;;;;;;2.47;2.28;;;32.30;41.90;;;;;;5079915;28;20017;-79
2022/05/11 06:13:45;;;;;;;2.00;1.90;;;32.40;40.90;;;;;;5086375;28;20068;-83
2022/05/11 06:16:15;;;;;;;2.17;2.08;;;32.30;40.80;;;;;;5076265;28;20591;-84
2022/05/11 06:18:46;;;;;;;2.13;1.88;;;31.90;40.60;;;;;;5050353;28;20025;-84
2022/05/11 06:21:13;;;;;;;2.00;1.90;;;31.80;40.50;;;;;;5068436;28;20017;-83
2022/05/11 06:23:40;;;;;;;2.00;1.80;;;31.40;40.70;;;;;;5088624;28;20127;-83
2022/05/11 06:26:08;;;;;;;1.52;1.50;;;31.10;41.60;;;;;;5071549;28;20024;-84
2022/05/11 06:28:37;;;;;;;1.60;1.55;;;31.50;41.10;;;;;;5067811;28;20100;-83
2022/05/11 06:31:03;;;;;;;1.77;1.67;;;32.20;40.20;;;;;;5068861;28;20025;-83
2022/05/11 06:33:28;;;;;;;1.80;1.70;;;32.80;39.80;;;;;;5067407;28;20035;-83
2022/05/11 06:35:54;;;;;;;2.25;2.05;;;33.40;39.10;;;;;;5065700;28;20076;-83
2022/05/11 06:38:20;;;;;;;2.30;2.13;;;34.10;37.80;;;;;;5064866;28;20033;-83
2022/05/11 06:40:46;;;;;;;5.32;2.35;;;33.80;37.50;;;;;;5067794;28;20050;-84
2022/05/11 06:43:12;;;;;;;2.17;1.92;;;33.70;37.80;;;;;;5064974;28;20135;-83
2022/05/11 06:45:38;;;;;;;3.85;2.33;;;33.30;37.80;;;;;;5068038;28;20017;-84
2022/05/11 06:48:04;;;;;;;1.52;1.52;;;33.30;38.40;;;;;;5065566;28;20085;-83
2022/05/11 06:50:30;;;;;;;3.78;1.95;;;33.80;38.30;;;;;;5071775;28;20025;-84
2022/05/11 06:52:57;;;;;;;1.98;1.88;;;34.30;37.50;;;;;;5049202;28;20116;-85
2022/05/11 07:08:52;;;;;;;4.32;2.35;;;30.10;40.10;;;;;;5010138;28;20045;-85
2022/05/11 07:14:13;;;;;;;;;;;;;;;;;;;;;
2022/05/11 07:16:40;;;;;;;7.13;3.08;;;24.30;50.00;;;;;;5067686;28;20056;-84
2022/05/11 07:19:06;;;;;;;5.47;3.75;;;23.50;52.60;;;;;;5067520;28;20448;-84
2022/05/11 07:21:32;;;;;;;4.53;3.17;;;23.00;54.00;;;;;;5055741;28;20047;-84
2022/05/11 07:24:08;;;;;;;6.13;3.17;;;22.60;55.20;;;;;;5072336;28;20025;-83
2022/05/11 07:26:37;;;;;;;3.88;3.10;;;22.40;56.10;;;;;;5090204;28;20029;-83
2022/05/11 07:29:02;;;;;;;2.88;2.67;;;22.20;56.80;;;;;;5080450;28;20082;-85
2022/05/11 07:31:29;;;;;;;2.42;2.33;;;22.00;57.30;;;;;;5070130;28;20025;-83
2022/05/11 07:34:01;;;;;;;4.13;2.97;;;21.90;57.80;;;;;;5070287;28;20025;-84
2022/05/11 07:36:39;;;;;;;3.13;2.90;;;21.90;58.10;;;;;;5091485;28;20409;-83
2022/05/11 07:39:05;;;;;;;2.72;2.53;;;22.00;58.20;;;;;;5089812;28;20074;-83
2022/05/11 07:41:30;;;;;;;3.03;2.58;;;22.00;58.30;;;;;;5067526;28;20051;-84
2022/05/11 07:43:57;;;;;;;3.33;2.85;;;22.00;58.20;;;;;;5081711;28;20064;-84
2022/05/11 07:46:25;;;;;;;4.43;3.50;;;22.10;58.20;;;;;;5049786;28;20036;-84
2022/05/11 07:48:51;;;;;;;3.45;2.42;;;22.10;58.30;;;;;;5063231;28;20031;-84
2022/05/11 07:51:24;;;;;;;3.00;2.60;;;22.10;58.20;;;;;;5281577;23;20153;-84
2022/05/11 07:53:50;;;;;;;2.50;2.30;;;22.10;58.20;;;;;;5044456;28;20140;-84
2022/05/11 08:01:44;;;;;;;3.28;2.97;;;22.40;58.00;;;;;;5064491;28;20405;-84
2022/05/11 08:04:10;;;;;;;3.17;2.97;;;22.50;58.00;;;;;;5064652;28;20048;-84
2022/05/11 08:06:36;;;;;;;3.47;2.90;;;22.60;58.00;;;;;;5064180;28;20080;-83
2022/05/11 08:09:02;;;;;;;3.22;2.97;;;22.70;58.10;;;;;;5065943;28;20021;-84
2022/05/11 08:11:28;;;;;;;3.72;2.75;;;22.80;58.00;;;;;;5065088;28;20047;-85
2022/05/11 08:13:54;;;;;;;6.40;3.20;;;22.90;57.70;;;;;;5063624;28;20029;-83
2022/05/11 08:16:20;;;;;;;2.95;2.50;;;23.00;57.40;;;;;;5064426;28;20089;-83
2022/05/11 08:18:53;;;;;;;5.30;3.40;;;23.20;57.40;;;;;;5048436;28;20044;-85
2022/05/11 08:21:19;;;;;;;3.53;3.05;;;23.30;56.60;;;;;;5067399;28;20055;-85
2022/05/11 08:23:46;;;;;;;5.45;2.80;;;23.40;56.20;;;;;;5064231;28;20035;-84
2022/05/11 08:26:12;;;;;;;2.95;2.65;;;23.50;55.80;;;;;;5062110;28;20148;-84
2022/05/11 08:28:38;;;;;;;3.95;3.13;;;23.70;55.70;;;;;;5062535;28;20029;-83
2022/05/11 08:33:48;;;;;;;3.38;3.08;;;24.00;54.50;;;;;;5063509;28;20085;-82
2022/05/11 08:36:16;;;;;;;8.60;2.95;;;24.00;54.40;;;;;;5044924;28;20025;-84
2022/05/11 08:38:45;;;;;;;4.18;2.90;;;24.20;54.30;;;;;;5063921;28;20159;-83
2022/05/11 08:41:49;;;;;;;5.38;2.83;;;24.40;53.50;;;;;;5062844;28;20032;-83
2022/05/11 08:44:31;;;;;;;3.53;2.47;;;24.40;53.30;;;;;;5042781;28;20103;-84
2022/05/11 08:47:13;;;;;;;2.28;2.15;;;24.50;52.30;;;;;;5053892;28;20040;-84
2022/05/11 08:49:41;;;;;;;5.00;2.63;;;24.50;52.50;;;;;;5068438;28;20020;-85
2022/05/11 08:52:22;;;;;;;3.20;2.65;;;24.50;52.10;;;;;;5043887;28;20033;-86
2022/05/11 08:55:00;;;;;;;3.42;2.65;;;24.60;51.70;;;;;;5044396;28;20084;-84
2022/05/11 08:57:26;;;;;;;7.25;3.70;;;24.60;51.70;;;;;;5061534;28;20492;-84
2022/05/11 08:59:58;;;;;;;6.05;2.72;;;24.70;52.30;;;;;;5063136;28;20049;-83
2022/05/11 09:02:38;;;;;;;5.20;2.60;;;24.80;51.60;;;;;;5066581;28;20033;-84
2022/05/11 09:05:05;;;;;;;3.35;2.78;;;24.90;51.80;;;;;;5067365;28;20021;-82
2022/05/11 09:07:38;;;;;;;4.57;2.92;;;25.00;51.80;;;;;;5067806;28;20044;-83
2022/05/11 09:10:06;;;;;;;4.07;2.38;;;25.10;51.40;;;;;;5067921;28;20013;-83
2022/05/11 09:12:31;;;;;;;4.75;2.75;;;25.20;51.30;;;;;;5067988;28;20052;-84
2022/05/11 09:15:00;;;;;;;4.28;2.90;;;25.30;50.80;;;;;;5067725;28;20029;-83
2022/05/11 09:17:27;;;;;;;2.67;2.50;;;25.40;50.70;;;;;;5049401;28;20025;-83
2022/05/11 09:20:10;;;;;;;4.97;2.50;;;25.50;50.90;;;;;;5067565;28;20029;-82
2022/05/11 09:22:54;;;;;;;2.58;2.33;;;25.60;50.20;;;;;;5073184;28;20037;-83
2022/05/11 09:25:26;;;;;;;2.90;2.63;;;25.50;50.80;;;;;;5067006;28;20017;-84
2022/05/11 09:28:18;;;;;;;4.10;2.47;;;25.60;50.40;;;;;;5069582;28;20023;-84
2022/05/11 09:30:58;;;;;;;6.45;2.70;;;25.70;49.60;;;;;;5079407;28;20100;-83
2022/05/11 09:33:28;;;;;;;6.57;2.65;;;25.80;49.00;;;;;;5078654;28;20028;-83
2022/05/11 09:35:55;;;;;;;7.50;2.85;;;25.90;48.30;;;;;;5061714;28;20049;-82
2022/05/11 09:38:25;;;;;;;2.88;2.63;;;26.00;48.00;;;;;;5060633;28;20037;-81
2022/05/11 09:41:05;;;;;;;5.05;2.60;;;25.90;48.20;;;;;;5078738;28;20053;-82
2022/05/11 09:43:30;;;;;;;2.60;2.28;;;26.00;48.00;;;;;;5051416;28;20025;-83
2022/05/11 09:45:56;;;;;;;8.73;3.47;;;26.10;47.50;;;;;;5067324;28;20029;-83
2022/05/11 09:48:32;;;;;;;2.97;2.35;;;26.20;47.10;;;;;;5047879;28;20477;-84
2022/05/11 09:51:27;;;;;;;5.80;2.38;;;26.30;46.70;;;;;;5066748;28;20039;-84
2022/05/11 09:54:15;;;;;;;3.38;2.25;;;26.40;46.40;;;;;;5072462;28;20013;-82
2022/05/11 09:57:03;;;;;;;2.40;2.20;;;26.40;46.10;;;;;;5060576;28;20025;-83
2022/05/11 09:59:32;;;;;;;6.25;2.50;;;26.40;46.10;;;;;;5056728;28;20143;-81
2022/05/11 10:02:27;;;;;;;2.55;2.35;;;26.50;45.80;;;;;;5057941;28;20033;-83
2022/05/11 10:05:10;;;;;;;3.55;2.20;;;26.60;45.70;;;;;;5061274;28;20196;-84
2022/05/11 10:08:03;;;;;;;2.63;2.08;;;26.70;45.10;;;;;;5077961;28;20030;-82
2022/05/11 10:10:36;;;;;;;2.63;2.42;;;26.80;44.80;;;;;;5077211;28;20013;-84
2022/05/11 10:13:29;;;;;;;6.82;2.60;;;27.00;44.00;;;;;;5057435;28;20040;-82
2022/05/11 10:21:50;;;;;;;5.28;2.55;;;27.20;44.10;;;;;;5075566;28;20035;-84
2022/05/11 10:24:31;;;;;;;2.40;2.20;;;27.40;43.90;;;;;;5077176;28;20041;-84
2022/05/11 10:27:00;;;;;;;3.50;2.10;;;27.60;43.10;;;;;;5076113;28;20255;-84
2022/05/11 10:29:28;;;;;;;4.13;2.35;;;27.60;42.20;;;;;;5075679;28;20060;-84
2022/05/11 10:31:57;;;;;;;3.85;1.98;;;27.70;42.30;;;;;;5074521;28;20037;-85
2022/05/11 10:34:29;;;;;;;5.32;2.50;;;27.80;42.10;;;;;;5052901;28;20023;-84
2022/05/11 10:37:24;;;;;;;3.17;2.50;;;27.80;41.80;;;;;;5069498;28;20017;-84
2022/05/11 10:40:02;;;;;;;4.40;2.33;;;27.90;41.50;;;;;;5064350;28;20041;-84
2022/05/11 10:42:34;;;;;;;2.38;2.17;;;28.00;41.40;;;;;;5068650;28;20044;-85
2022/05/11 10:45:19;;;;;;;3.88;2.30;;;28.00;40.90;;;;;;5069761;28;20095;-83
2022/05/11 10:48:08;;;;;;;2.67;2.47;;;28.20;41.10;;;;;;5069958;28;20021;-84
2022/05/11 10:50:43;;;;;;;2.63;1.95;;;28.30;40.90;;;;;;5051675;28;20402;-84
2022/05/11 10:53:09;;;;;;;4.68;2.40;;;28.30;40.20;;;;;;5049139;28;20390;-85
2022/05/11 10:56:09;;;;;;;2.67;2.47;;;28.20;39.70;;;;;;5053438;28;20025;-84
2022/05/11 10:58:54;;;;;;;2.80;2.05;;;28.40;39.70;;;;;;5066563;28;20032;-84
2022/05/11 11:01:22;;;;;;;4.68;2.40;;;28.50;39.30;;;;;;5066884;28;20021;-83
2022/05/11 11:04:25;;;;;;;4.03;2.75;;;28.40;39.70;;;;;;5069879;28;20025;-83
2022/05/11 11:07:16;;;;;;;2.50;2.05;;;28.10;39.80;;;;;;5051823;28;20025;-83
2022/05/11 11:10:12;;;;;;;3.30;2.03;;;27.90;40.40;;;;;;5069008;28;20033;-83
2022/05/11 11:12:53;;;;;;;6.32;2.30;;;27.80;39.70;;;;;;5048414;28;20016;-84
2022/05/11 11:15:26;;;;;;;5.30;2.03;;;27.80;39.20;;;;;;5055040;28;20064;-84
2022/05/11 11:17:55;;;;;;;3.17;2.00;;;27.80;38.60;;;;;;5030246;28;20075;-83
2022/05/11 11:20:22;;;;;;;1.77;1.67;;;28.00;39.00;;;;;;5033107;28;20041;-83
2022/05/11 11:23:21;;;;;;;2.03;1.83;;;28.20;38.80;;;;;;5049479;28;20053;-84
2022/05/11 11:26:09;;;;;;;5.40;1.77;;;28.40;38.40;;;;;;5050568;28;20015;-83
2022/05/11 11:29:05;;;;;;;5.28;2.28;;;28.60;38.30;;;;;;5049193;28;20041;-84
2022/05/11 11:31:32;;;;;;;2.08;1.65;;;28.50;38.10;;;;;;5027560;28;20064;-83
2022/05/11 11:34:04;;;;;;;7.10;2.00;;;28.50;38.30;;;;;;5039718;28;20013;-82
2022/05/11 11:36:36;;;;;;;4.85;2.15;;;28.50;37.90;;;;;;5068384;28;20068;-83
2022/05/11 11:39:05;;;;;;;2.90;2.60;;;28.60;37.60;;;;;;5056964;28;20009;-86
2022/05/11 11:41:52;;;;;;;5.28;2.45;;;28.70;37.70;;;;;;5055149;28;20025;-84
2022/05/11 11:44:21;;;;;;;3.88;2.38;;;28.80;36.80;;;;;;5071317;28;20346;-83
2022/05/11 11:46:48;;;;;;;3.72;2.20;;;28.90;36.90;;;;;;5062987;28;20109;-84
2022/05/11 11:49:18;;;;;;;9.82;3.10;;;28.70;37.30;;;;;;5060381;28;20029;-85
2022/05/11 11:51:50;;;;;;;2.97;2.30;;;28.60;37.70;;;;;;5047856;28;20064;-85
2022/05/11 11:54:37;;;;;;;2.83;2.20;;;28.70;37.80;;;;;;5051764;28;20059;-84
2022/05/11 11:57:21;;;;;;;4.88;2.13;;;28.70;37.70;;;;;;5062097;28;20100;-84
2022/05/11 11:59:52;;;;;;;2.92;2.10;;;28.80;36.50;;;;;;5047260;28;20029;-85
2022/05/11 12:02:26;;;;;;;5.82;2.35;;;29.00;36.30;;;;;;5042412;28;20025;-84
2022/05/11 12:05:04;;;;;;;8.25;2.72;;;29.20;35.70;;;;;;5044730;28;20035;-85
2022/05/11 12:15:07;;;;;;;2.70;2.05;;;29.40;35.70;;;;;;5019908;28;20045;-84
2022/05/11 12:18:14;;;;;;;2.60;2.00;;;29.60;35.70;;;;;;4907002;29;20044;-84
2022/05/11 12:21:42;;;;;;;15.95;2.63;;;29.70;35.40;;;;;;4998043;28;20048;-84
2022/05/11 12:24:21;;;;;;;5.07;2.08;;;29.70;34.90;;;;;;5042562;28;20431;-84
2022/05/11 12:26:56;;;;;;;4.28;1.95;;;29.70;34.70;;;;;;5026932;28;20017;-85
2022/05/11 12:32:08;;;;;;;6.07;2.47;;;29.70;34.70;;;;;;5045384;28;20056;-84
2022/05/11 12:34:41;;;;;;;2.33;2.13;;;29.70;34.50;;;;;;5047971;28;20091;-84
2022/05/11 12:37:29;;;;;;;8.35;2.50;;;29.80;34.40;;;;;;5065892;28;20047;-84
2022/05/11 12:40:18;;;;;;;2.45;1.70;;;29.90;34.40;;;;;;5061757;28;20036;-84
2022/05/11 12:42:48;;;;;;;2.20;1.80;;;30.00;34.00;;;;;;5047909;28;20022;-84
2022/05/11 12:45:36;;;;;;;3.08;1.75;;;30.00;33.30;;;;;;5046739;28;20037;-85
2022/05/11 12:48:09;;;;;;;3.00;1.75;;;30.20;33.40;;;;;;5032456;28;20037;-84
2022/05/11 12:51:30;;;;;;;1.50;1.40;;;30.20;33.80;;;;;;5030266;28;20047;-84
2022/05/11 12:54:05;;;;;;;2.65;1.70;;;30.20;33.50;;;;;;5062909;28;20101;-84
2022/05/11 12:57:55;;;;;;;6.32;1.92;;;30.20;33.70;;;;;;5056481;28;20025;-84
2022/05/11 13:00:56;;;;;;;6.38;2.00;;;30.10;33.30;;;;;;5060743;28;20048;-86
2022/05/11 13:03:37;;;;;;;2.45;1.77;;;30.00;33.90;;;;;;5076279;28;20020;-83
2022/05/11 13:06:21;;;;;;;5.47;1.70;;;30.00;33.50;;;;;;5057542;28;20054;-84
2022/05/11 13:08:53;;;;;;;5.07;2.53;;;30.10;33.30;;;;;;5045168;28;20025;-85
2022/05/11 13:11:21;;;;;;;3.60;1.70;;;30.10;32.70;;;;;;5032521;28;20281;-83
2022/05/11 13:13:51;;;;;;;5.00;1.90;;;30.20;32.90;;;;;;5041399;28;20041;-84
2022/05/11 13:16:19;;;;;;;2.70;1.55;;;30.20;33.10;;;;;;5046701;28;20036;-84
2022/05/11 13:18:46;;;;;;;4.13;1.80;;;30.20;33.20;;;;;;5063903;28;20117;-84
2022/05/11 13:21:12;;;;;;;4.00;2.03;;;30.20;32.90;;;;;;5066470;28;20013;-85
2022/05/11 13:23:47;;;;;;;2.42;1.75;;;30.20;33.20;;;;;;5048612;28;20021;-84
2022/05/11 13:26:34;;;;;;;3.25;1.70;;;30.30;32.70;;;;;;5064776;28;20036;-85
2022/05/11 13:29:12;;;;;;;1.88;1.35;;;30.30;32.60;;;;;;5053763;28;20043;-84
2022/05/11 13:31:42;;;;;;;7.78;2.10;;;30.10;33.20;;;;;;5052084;28;20044;-86
2022/05/11 13:34:35;;;;;;;3.20;1.40;;;30.10;32.90;;;;;;5066167;28;20024;-84
2022/05/11 13:37:01;;;;;;;2.80;1.77;;;30.30;32.50;;;;;;5059586;28;20017;-84
2022/05/11 13:39:37;;;;;;;6.88;2.78;;;30.20;32.90;;;;;;5068454;28;20028;-83
2022/05/11 13:42:27;;;;;;;3.38;2.30;;;30.30;33.30;;;;;;5079170;28;20081;-87
2022/05/11 13:45:05;;;;;;;4.50;2.25;;;30.50;33.70;;;;;;5078729;28;20013;-82
2022/05/11 13:50:28;;;;;;;3.97;2.03;;;30.60;33.30;;;;;;5072399;28;20083;-83
2022/05/11 13:53:03;;;;;;;2.45;1.55;;;30.60;32.70;;;;;;5068738;28;20100;-84
2022/05/11 13:55:42;;;;;;;3.67;1.95;;;30.50;32.90;;;;;;5052158;28;20056;-84
2022/05/11 13:58:32;;;;;;;3.40;1.98;;;30.40;33.10;;;;;;5051379;28;20051;-84
2022/05/11 14:01:07;;;;;;;2.85;1.70;;;30.30;33.00;;;;;;5050989;28;20025;-83
2022/05/11 14:03:38;;;;;;;2.47;1.83;;;30.20;33.20;;;;;;5070034;28;20025;-84